sensor_id;sensor_type;location;lat;lon;timestamp;P1;durP1;ratioP1;P2;durP2;ratioP2
65658;SDS011;60181;53.258;6.932;2022-12-29T00:01:16;5.40;;;3.30;;
65658;SDS011;60181;53.258;6.932;2022-12-29T00:05:44;5.40;;;3.30;;
65658;SDS011;60181;53.258;6.932;2022-12-29T00:10:12;6.00;;;3.30;;
65658;SDS011;60181;53.258;6.932;2022-12-29T00:14:40;6.00;;;3.30;;
65658;SDS011;60181;53.258;6.932;2022-12-29T00:19:08;6.00;;;3.30;;
65658;SDS011;60181;53.258;6.932;2022-12-29T00:23:36;5.80;;;3.30;;
65658;SDS011;60181;53.258;6.932;2022-12-29T00:28:06;5.80;;;3.30;;
65658;SDS011;60181;53.258;6.932;2022-12-29T00:32:32;4.90;;;3.10;;
65658;SDS011;60181;53.258;6.932;2022-12-29T00:37:00;4.90;;;3.10;;
65658;SDS011;60181;53.258;6.932;2022-12-29T00:41:28;6.10;;;3.10;;
65658;SDS011;60181;53.258;6.932;2022-12-29T00:45:56;6.10;;;3.10;;
65658;SDS011;60181;53.258;6.932;2022-12-29T00:50:24;4.10;;;3.00;;
65658;SDS011;60181;53.258;6.932;2022-12-29T00:54:52;4.10;;;3.00;;
65658;SDS011;60181;53.258;6.932;2022-12-29T00:59:20;5.20;;;2.90;;
65658;SDS011;60181;53.258;6.932;2022-12-29T01:03:48;5.20;;;2.90;;
65658;SDS011;60181;53.258;6.932;2022-12-29T01:08:16;5.20;;;2.90;;
65658;SDS011;60181;53.258;6.932;2022-12-29T01:12:44;5.10;;;3.10;;
65658;SDS011;60181;53.258;6.932;2022-12-29T01:17:12;5.10;;;3.10;;
65658;SDS011;60181;53.258;6.932;2022-12-29T01:21:40;6.10;;;3.30;;
65658;SDS011;60181;53.258;6.932;2022-12-29T01:26:09;6.10;;;3.30;;
65658;SDS011;60181;53.258;6.932;2022-12-29T01:30:36;5.00;;;3.10;;
65658;SDS011;60181;53.258;6.932;2022-12-29T01:35:04;5.00;;;3.10;;
65658;SDS011;60181;53.258;6.932;2022-12-29T01:39:32;5.10;;;3.10;;
65658;SDS011;60181;53.258;6.932;2022-12-29T01:44:00;5.10;;;3.10;;
65658;SDS011;60181;53.258;6.932;2022-12-29T01:48:28;5.10;;;3.10;;
65658;SDS011;60181;53.258;6.932;2022-12-29T01:53:03;5.00;;;3.40;;
65658;SDS011;60181;53.258;6.932;2022-12-29T01:57:25;5.00;;;3.40;;
65658;SDS011;60181;53.258;6.932;2022-12-29T02:01:52;5.00;;;3.10;;
65658;SDS011;60181;53.258;6.932;2022-12-29T02:06:24;5.00;;;3.10;;
65658;SDS011;60181;53.258;6.932;2022-12-29T02:10:48;9.40;;;3.30;;
65658;SDS011;60181;53.258;6.932;2022-12-29T02:15:16;9.40;;;3.30;;
65658;SDS011;60181;53.258;6.932;2022-12-29T02:37:41;6.90;;;3.00;;
65658;SDS011;60181;53.258;6.932;2022-12-29T02:46:36;4.80;;;3.00;;
65658;SDS011;60181;53.258;6.932;2022-12-29T02:51:01;6.10;;;3.00;;
65658;SDS011;60181;53.258;6.932;2022-12-29T02:55:28;6.10;;;3.00;;
65658;SDS011;60181;53.258;6.932;2022-12-29T03:00:04;8.90;;;3.00;;
65658;SDS011;60181;53.258;6.932;2022-12-29T03:04:32;8.90;;;3.00;;
65658;SDS011;60181;53.258;6.932;2022-12-29T03:08:55;8.90;;;3.00;;
65658;SDS011;60181;53.258;6.932;2022-12-29T03:22:17;5.80;;;2.70;;
65658;SDS011;60181;53.258;6.932;2022-12-29T03:26:44;5.80;;;2.70;;
65658;SDS011;60181;53.258;6.932;2022-12-29T03:31:12;5.90;;;2.60;;
65658;SDS011;60181;53.258;6.932;2022-12-29T03:35:41;5.90;;;2.60;;
65658;SDS011;60181;53.258;6.932;2022-12-29T03:40:08;3.70;;;2.30;;
65658;SDS011;60181;53.258;6.932;2022-12-29T03:44:37;3.70;;;2.30;;
65658;SDS011;60181;53.258;6.932;2022-12-29T03:49:04;3.70;;;2.30;;
65658;SDS011;60181;53.258;6.932;2022-12-29T03:53:32;3.30;;;2.10;;
65658;SDS011;60181;53.258;6.932;2022-12-29T03:58:00;3.30;;;2.10;;
65658;SDS011;60181;53.258;6.932;2022-12-29T04:02:28;3.70;;;1.90;;
65658;SDS011;60181;53.258;6.932;2022-12-29T04:06:56;3.70;;;1.90;;
65658;SDS011;60181;53.258;6.932;2022-12-29T04:11:24;5.40;;;2.10;;
65658;SDS011;60181;53.258;6.932;2022-12-29T04:15:52;5.40;;;2.10;;
65658;SDS011;60181;53.258;6.932;2022-12-29T04:20:20;5.20;;;1.80;;
65658;SDS011;60181;53.258;6.932;2022-12-29T04:24:48;5.20;;;1.80;;
65658;SDS011;60181;53.258;6.932;2022-12-29T04:29:16;5.20;;;1.80;;
65658;SDS011;60181;53.258;6.932;2022-12-29T04:33:44;3.30;;;1.70;;
65658;SDS011;60181;53.258;6.932;2022-12-29T04:38:12;3.30;;;1.70;;
65658;SDS011;60181;53.258;6.932;2022-12-29T04:42:40;5.10;;;1.80;;
65658;SDS011;60181;53.258;6.932;2022-12-29T04:47:08;5.10;;;1.80;;
65658;SDS011;60181;53.258;6.932;2022-12-29T04:51:36;4.60;;;1.70;;
65658;SDS011;60181;53.258;6.932;2022-12-29T04:56:04;4.60;;;1.70;;
65658;SDS011;60181;53.258;6.932;2022-12-29T05:00:32;3.40;;;1.40;;
65658;SDS011;60181;53.258;6.932;2022-12-29T05:05:00;3.40;;;1.40;;
65658;SDS011;60181;53.258;6.932;2022-12-29T05:09:28;3.50;;;1.30;;
65658;SDS011;60181;53.258;6.932;2022-12-29T05:13:56;3.50;;;1.30;;
65658;SDS011;60181;53.258;6.932;2022-12-29T05:18:24;3.50;;;1.30;;
65658;SDS011;60181;53.258;6.932;2022-12-29T05:22:52;2.50;;;1.30;;
65658;SDS011;60181;53.258;6.932;2022-12-29T05:27:20;2.50;;;1.30;;
65658;SDS011;60181;53.258;6.932;2022-12-29T05:31:48;3.60;;;1.30;;
65658;SDS011;60181;53.258;6.932;2022-12-29T05:36:16;3.60;;;1.30;;
65658;SDS011;60181;53.258;6.932;2022-12-29T05:40:44;5.70;;;1.30;;
65658;SDS011;60181;53.258;6.932;2022-12-29T05:45:12;5.70;;;1.30;;
65658;SDS011;60181;53.258;6.932;2022-12-29T05:49:40;6.10;;;1.30;;
65658;SDS011;60181;53.258;6.932;2022-12-29T05:54:08;6.10;;;1.30;;
65658;SDS011;60181;53.258;6.932;2022-12-29T05:58:36;6.10;;;1.30;;
65658;SDS011;60181;53.258;6.932;2022-12-29T06:03:04;6.50;;;1.60;;
65658;SDS011;60181;53.258;6.932;2022-12-29T06:07:32;6.50;;;1.60;;
65658;SDS011;60181;53.258;6.932;2022-12-29T06:12:00;7.30;;;1.50;;
65658;SDS011;60181;53.258;6.932;2022-12-29T06:16:28;7.30;;;1.50;;
65658;SDS011;60181;53.258;6.932;2022-12-29T06:20:59;7.90;;;1.70;;
65658;SDS011;60181;53.258;6.932;2022-12-29T06:25:24;7.90;;;1.70;;
65658;SDS011;60181;53.258;6.932;2022-12-29T06:29:52;7.90;;;1.60;;
65658;SDS011;60181;53.258;6.932;2022-12-29T06:34:20;7.90;;;1.60;;
65658;SDS011;60181;53.258;6.932;2022-12-29T06:38:48;7.90;;;1.60;;
65658;SDS011;60181;53.258;6.932;2022-12-29T06:43:16;6.10;;;1.40;;
65658;SDS011;60181;53.258;6.932;2022-12-29T06:47:44;6.10;;;1.40;;
65658;SDS011;60181;53.258;6.932;2022-12-29T06:52:12;4.60;;;1.30;;
65658;SDS011;60181;53.258;6.932;2022-12-29T06:56:40;4.60;;;1.30;;
65658;SDS011;60181;53.258;6.932;2022-12-29T07:01:08;6.60;;;1.20;;
65658;SDS011;60181;53.258;6.932;2022-12-29T07:05:36;6.60;;;1.20;;
65658;SDS011;60181;53.258;6.932;2022-12-29T07:10:04;5.70;;;1.30;;
65658;SDS011;60181;53.258;6.932;2022-12-29T07:14:32;5.70;;;1.30;;
65658;SDS011;60181;53.258;6.932;2022-12-29T07:19:00;5.70;;;1.30;;
65658;SDS011;60181;53.258;6.932;2022-12-29T07:23:28;5.30;;;1.30;;
65658;SDS011;60181;53.258;6.932;2022-12-29T07:27:56;5.30;;;1.30;;
65658;SDS011;60181;53.258;6.932;2022-12-29T07:32:24;4.30;;;1.40;;
65658;SDS011;60181;53.258;6.932;2022-12-29T07:36:52;4.30;;;1.40;;
65658;SDS011;60181;53.258;6.932;2022-12-29T07:41:20;4.90;;;1.70;;
65658;SDS011;60181;53.258;6.932;2022-12-29T07:45:48;4.90;;;1.70;;
65658;SDS011;60181;53.258;6.932;2022-12-29T07:50:16;5.40;;;1.90;;
65658;SDS011;60181;53.258;6.932;2022-12-29T07:54:44;5.40;;;1.90;;
65658;SDS011;60181;53.258;6.932;2022-12-29T07:59:12;5.40;;;1.90;;
65658;SDS011;60181;53.258;6.932;2022-12-29T08:03:40;7.70;;;2.80;;
65658;SDS011;60181;53.258;6.932;2022-12-29T08:08:08;7.70;;;2.80;;
65658;SDS011;60181;53.258;6.932;2022-12-29T08:12:37;9.10;;;2.90;;
65658;SDS011;60181;53.258;6.932;2022-12-29T08:17:04;9.10;;;2.90;;
65658;SDS011;60181;53.258;6.932;2022-12-29T08:21:32;9.00;;;3.00;;
65658;SDS011;60181;53.258;6.932;2022-12-29T08:26:00;9.00;;;3.00;;
65658;SDS011;60181;53.258;6.932;2022-12-29T08:30:28;9.50;;;3.40;;
65658;SDS011;60181;53.258;6.932;2022-12-29T08:34:56;9.50;;;3.40;;
65658;SDS011;60181;53.258;6.932;2022-12-29T08:39:24;10.40;;;3.20;;
65658;SDS011;60181;53.258;6.932;2022-12-29T08:43:52;10.40;;;3.20;;
65658;SDS011;60181;53.258;6.932;2022-12-29T08:48:20;10.40;;;3.20;;
65658;SDS011;60181;53.258;6.932;2022-12-29T08:52:48;11.00;;;3.70;;
65658;SDS011;60181;53.258;6.932;2022-12-29T08:57:16;11.00;;;3.70;;
65658;SDS011;60181;53.258;6.932;2022-12-29T09:01:44;10.70;;;3.80;;
65658;SDS011;60181;53.258;6.932;2022-12-29T09:06:12;10.70;;;3.80;;
65658;SDS011;60181;53.258;6.932;2022-12-29T09:10:39;10.30;;;4.10;;
65658;SDS011;60181;53.258;6.932;2022-12-29T09:15:08;10.30;;;4.10;;
65658;SDS011;60181;53.258;6.932;2022-12-29T09:19:35;11.70;;;4.20;;
65658;SDS011;60181;53.258;6.932;2022-12-29T09:24:04;11.70;;;4.20;;
65658;SDS011;60181;53.258;6.932;2022-12-29T09:28:31;11.70;;;4.20;;
65658;SDS011;60181;53.258;6.932;2022-12-29T09:32:59;15.20;;;4.70;;
65658;SDS011;60181;53.258;6.932;2022-12-29T09:37:28;15.20;;;4.70;;
65658;SDS011;60181;53.258;6.932;2022-12-29T09:46:39;18.00;;;5.50;;
65658;SDS011;60181;53.258;6.932;2022-12-29T09:50:52;13.40;;;5.30;;
65658;SDS011;60181;53.258;6.932;2022-12-29T09:55:23;13.40;;;5.30;;
65658;SDS011;60181;53.258;6.932;2022-12-29T09:59:48;16.40;;;5.60;;
65658;SDS011;60181;53.258;6.932;2022-12-29T10:04:15;16.40;;;5.60;;
65658;SDS011;60181;53.258;6.932;2022-12-29T10:08:57;16.40;;;5.60;;
65658;SDS011;60181;53.258;6.932;2022-12-29T10:13:20;21.70;;;4.70;;
65658;SDS011;60181;53.258;6.932;2022-12-29T10:17:52;21.70;;;4.70;;
65658;SDS011;60181;53.258;6.932;2022-12-29T10:22:17;16.30;;;4.30;;
65658;SDS011;60181;53.258;6.932;2022-12-29T10:26:37;16.30;;;4.30;;
65658;SDS011;60181;53.258;6.932;2022-12-29T10:31:04;17.10;;;4.70;;
65658;SDS011;60181;53.258;6.932;2022-12-29T10:35:35;17.10;;;4.70;;
65658;SDS011;60181;53.258;6.932;2022-12-29T10:39:59;17.10;;;4.80;;
65658;SDS011;60181;53.258;6.932;2022-12-29T10:44:29;17.10;;;4.80;;
65658;SDS011;60181;53.258;6.932;2022-12-29T10:48:56;17.10;;;4.80;;
65658;SDS011;60181;53.258;6.932;2022-12-29T10:53:25;16.00;;;5.00;;
65658;SDS011;60181;53.258;6.932;2022-12-29T10:57:51;16.00;;;5.00;;
65658;SDS011;60181;53.258;6.932;2022-12-29T11:06:47;15.20;;;4.50;;
65658;SDS011;60181;53.258;6.932;2022-12-29T11:11:16;13.60;;;4.30;;
65658;SDS011;60181;53.258;6.932;2022-12-29T11:15:44;13.60;;;4.30;;
65658;SDS011;60181;53.258;6.932;2022-12-29T11:20:27;11.70;;;4.30;;
65658;SDS011;60181;53.258;6.932;2022-12-29T11:24:46;11.70;;;4.30;;
65658;SDS011;60181;53.258;6.932;2022-12-29T11:33:36;12.40;;;4.10;;
65658;SDS011;60181;53.258;6.932;2022-12-29T11:38:03;12.40;;;4.10;;
65658;SDS011;60181;53.258;6.932;2022-12-29T11:42:38;13.50;;;4.40;;
65658;SDS011;60181;53.258;6.932;2022-12-29T11:46:59;13.50;;;4.40;;
65658;SDS011;60181;53.258;6.932;2022-12-29T11:51:28;14.00;;;4.30;;
65658;SDS011;60181;53.258;6.932;2022-12-29T11:55:59;14.00;;;4.30;;
65658;SDS011;60181;53.258;6.932;2022-12-29T12:00:24;11.90;;;4.00;;
65658;SDS011;60181;53.258;6.932;2022-12-29T12:04:53;11.90;;;4.00;;
65658;SDS011;60181;53.258;6.932;2022-12-29T12:09:22;11.90;;;4.00;;
65658;SDS011;60181;53.258;6.932;2022-12-29T12:13:54;11.50;;;4.10;;
65658;SDS011;60181;53.258;6.932;2022-12-29T12:18:28;11.50;;;4.10;;
65658;SDS011;60181;53.258;6.932;2022-12-29T12:22:51;12.20;;;4.10;;
65658;SDS011;60181;53.258;6.932;2022-12-29T12:31:53;14.20;;;4.40;;
65658;SDS011;60181;53.258;6.932;2022-12-29T12:49:36;11.10;;;4.40;;
65658;SDS011;60181;53.258;6.932;2022-12-29T13:03:12;13.10;;;4.30;;
65658;SDS011;60181;53.258;6.932;2022-12-29T13:20:50;11.60;;;4.30;;
65658;SDS011;60181;53.258;6.932;2022-12-29T13:25:21;11.60;;;4.30;;
65658;SDS011;60181;53.258;6.932;2022-12-29T13:29:50;13.30;;;4.50;;
65658;SDS011;60181;53.258;6.932;2022-12-29T13:38:40;13.30;;;4.50;;
65658;SDS011;60181;53.258;6.932;2022-12-29T13:43:07;13.60;;;4.20;;
65658;SDS011;60181;53.258;6.932;2022-12-29T13:47:39;13.60;;;4.20;;
65658;SDS011;60181;53.258;6.932;2022-12-29T13:52:11;12.50;;;4.10;;
65658;SDS011;60181;53.258;6.932;2022-12-29T14:05:28;15.80;;;4.40;;
65658;SDS011;60181;53.258;6.932;2022-12-29T14:09:55;11.40;;;4.30;;
65658;SDS011;60181;53.258;6.932;2022-12-29T14:14:25;11.40;;;4.30;;
65658;SDS011;60181;53.258;6.932;2022-12-29T14:18:51;11.40;;;4.30;;
65658;SDS011;60181;53.258;6.932;2022-12-29T14:23:38;11.20;;;4.30;;
65658;SDS011;60181;53.258;6.932;2022-12-29T14:27:51;11.20;;;4.30;;
65658;SDS011;60181;53.258;6.932;2022-12-29T14:36:53;12.50;;;4.30;;
65658;SDS011;60181;53.258;6.932;2022-12-29T14:41:27;11.40;;;4.10;;
65658;SDS011;60181;53.258;6.932;2022-12-29T14:45:40;11.40;;;4.10;;
65658;SDS011;60181;53.258;6.932;2022-12-29T14:50:11;10.30;;;4.20;;
65658;SDS011;60181;53.258;6.932;2022-12-29T14:54:42;10.30;;;4.20;;
65658;SDS011;60181;53.258;6.932;2022-12-29T14:59:03;10.30;;;4.20;;
65658;SDS011;60181;53.258;6.932;2022-12-29T15:07:59;12.60;;;4.60;;
65658;SDS011;60181;53.258;6.932;2022-12-29T15:12:41;11.60;;;4.20;;
65658;SDS011;60181;53.258;6.932;2022-12-29T15:16:55;11.60;;;4.20;;
65658;SDS011;60181;53.258;6.932;2022-12-29T15:21:30;12.80;;;4.60;;
65658;SDS011;60181;53.258;6.932;2022-12-29T15:25:58;12.80;;;4.60;;
65658;SDS011;60181;53.258;6.932;2022-12-29T15:30:19;11.90;;;4.60;;
65658;SDS011;60181;53.258;6.932;2022-12-29T15:34:48;11.90;;;4.60;;
65658;SDS011;60181;53.258;6.932;2022-12-29T15:39:19;11.90;;;4.60;;
65658;SDS011;60181;53.258;6.932;2022-12-29T15:48:17;11.90;;;4.10;;
65658;SDS011;60181;53.258;6.932;2022-12-29T15:52:39;10.90;;;4.20;;
65658;SDS011;60181;53.258;6.932;2022-12-29T15:57:11;10.90;;;4.20;;
65658;SDS011;60181;53.258;6.932;2022-12-29T16:01:35;12.40;;;4.40;;
65658;SDS011;60181;53.258;6.932;2022-12-29T16:06:07;12.40;;;4.40;;
65658;SDS011;60181;53.258;6.932;2022-12-29T16:15:00;14.30;;;4.30;;
65658;SDS011;60181;53.258;6.932;2022-12-29T16:19:28;12.40;;;4.10;;
65658;SDS011;60181;53.258;6.932;2022-12-29T16:23:57;12.40;;;4.10;;
65658;SDS011;60181;53.258;6.932;2022-12-29T16:28:23;12.40;;;4.10;;
65658;SDS011;60181;53.258;6.932;2022-12-29T16:32:52;12.00;;;3.70;;
65658;SDS011;60181;53.258;6.932;2022-12-29T16:41:47;12.80;;;4.00;;
65658;SDS011;60181;53.258;6.932;2022-12-29T16:46:24;12.80;;;4.00;;
65658;SDS011;60181;53.258;6.932;2022-12-29T16:50:43;11.00;;;3.60;;
65658;SDS011;60181;53.258;6.932;2022-12-29T16:55:15;11.00;;;3.60;;
65658;SDS011;60181;53.258;6.932;2022-12-29T16:59:39;8.90;;;3.60;;
65658;SDS011;60181;53.258;6.932;2022-12-29T17:04:10;8.90;;;3.60;;
65658;SDS011;60181;53.258;6.932;2022-12-29T17:08:39;8.90;;;3.60;;
65658;SDS011;60181;53.258;6.932;2022-12-29T17:13:03;13.50;;;3.80;;
65658;SDS011;60181;53.258;6.932;2022-12-29T17:17:35;13.50;;;3.80;;
65658;SDS011;60181;53.258;6.932;2022-12-29T17:21:59;10.20;;;3.40;;
65658;SDS011;60181;53.258;6.932;2022-12-29T17:26:27;10.20;;;3.40;;
65658;SDS011;60181;53.258;6.932;2022-12-29T17:30:57;10.30;;;3.70;;
65658;SDS011;60181;53.258;6.932;2022-12-29T17:35:23;10.30;;;3.70;;
65658;SDS011;60181;53.258;6.932;2022-12-29T17:39:51;9.60;;;3.50;;
65658;SDS011;60181;53.258;6.932;2022-12-29T17:44:19;9.60;;;3.50;;
65658;SDS011;60181;53.258;6.932;2022-12-29T17:48:47;9.60;;;3.50;;
65658;SDS011;60181;53.258;6.932;2022-12-29T17:53:17;10.10;;;3.70;;
65658;SDS011;60181;53.258;6.932;2022-12-29T17:57:43;10.10;;;3.70;;
65658;SDS011;60181;53.258;6.932;2022-12-29T18:02:29;10.80;;;3.60;;
65658;SDS011;60181;53.258;6.932;2022-12-29T18:06:39;10.80;;;3.60;;
65658;SDS011;60181;53.258;6.932;2022-12-29T18:11:20;8.70;;;3.30;;
65658;SDS011;60181;53.258;6.932;2022-12-29T18:15:35;8.70;;;3.30;;
65658;SDS011;60181;53.258;6.932;2022-12-29T18:20:03;10.00;;;3.20;;
65658;SDS011;60181;53.258;6.932;2022-12-29T18:24:31;10.00;;;3.20;;
65658;SDS011;60181;53.258;6.932;2022-12-29T18:28:59;10.00;;;3.20;;
65658;SDS011;60181;53.258;6.932;2022-12-29T18:33:27;8.90;;;3.30;;
65658;SDS011;60181;53.258;6.932;2022-12-29T18:37:55;8.90;;;3.30;;
65658;SDS011;60181;53.258;6.932;2022-12-29T18:42:23;8.50;;;3.60;;
65658;SDS011;60181;53.258;6.932;2022-12-29T18:46:51;8.50;;;3.60;;
65658;SDS011;60181;53.258;6.932;2022-12-29T18:51:20;9.50;;;3.20;;
65658;SDS011;60181;53.258;6.932;2022-12-29T18:55:47;9.50;;;3.20;;
65658;SDS011;60181;53.258;6.932;2022-12-29T19:00:15;8.10;;;3.20;;
65658;SDS011;60181;53.258;6.932;2022-12-29T19:04:43;8.10;;;3.20;;
65658;SDS011;60181;53.258;6.932;2022-12-29T19:09:11;8.10;;;3.20;;
65658;SDS011;60181;53.258;6.932;2022-12-29T19:13:39;8.00;;;2.80;;
65658;SDS011;60181;53.258;6.932;2022-12-29T19:18:07;8.00;;;2.80;;
65658;SDS011;60181;53.258;6.932;2022-12-29T19:22:35;8.20;;;3.00;;
65658;SDS011;60181;53.258;6.932;2022-12-29T19:27:03;8.20;;;3.00;;
65658;SDS011;60181;53.258;6.932;2022-12-29T19:31:31;8.80;;;2.70;;
65658;SDS011;60181;53.258;6.932;2022-12-29T19:35:59;8.80;;;2.70;;
65658;SDS011;60181;53.258;6.932;2022-12-29T19:40:27;8.50;;;3.00;;
65658;SDS011;60181;53.258;6.932;2022-12-29T19:44:55;8.50;;;3.00;;
65658;SDS011;60181;53.258;6.932;2022-12-29T19:49:23;8.50;;;3.00;;
65658;SDS011;60181;53.258;6.932;2022-12-29T19:53:52;9.80;;;2.70;;
65658;SDS011;60181;53.258;6.932;2022-12-29T19:58:19;9.80;;;2.70;;
65658;SDS011;60181;53.258;6.932;2022-12-29T20:02:47;7.60;;;2.90;;
65658;SDS011;60181;53.258;6.932;2022-12-29T20:07:15;7.60;;;2.90;;
65658;SDS011;60181;53.258;6.932;2022-12-29T20:11:43;8.70;;;2.80;;
65658;SDS011;60181;53.258;6.932;2022-12-29T20:16:14;8.70;;;2.80;;
65658;SDS011;60181;53.258;6.932;2022-12-29T20:20:39;6.40;;;2.60;;
65658;SDS011;60181;53.258;6.932;2022-12-29T20:25:07;6.40;;;2.60;;
65658;SDS011;60181;53.258;6.932;2022-12-29T20:29:35;8.60;;;2.60;;
65658;SDS011;60181;53.258;6.932;2022-12-29T20:34:03;8.60;;;2.60;;
65658;SDS011;60181;53.258;6.932;2022-12-29T20:38:31;8.60;;;2.60;;
65658;SDS011;60181;53.258;6.932;2022-12-29T20:42:58;7.90;;;2.80;;
65658;SDS011;60181;53.258;6.932;2022-12-29T20:47:26;7.90;;;2.80;;
65658;SDS011;60181;53.258;6.932;2022-12-29T20:51:54;8.60;;;2.70;;
65658;SDS011;60181;53.258;6.932;2022-12-29T20:56:23;8.60;;;2.70;;
65658;SDS011;60181;53.258;6.932;2022-12-29T21:00:51;7.00;;;2.60;;
65658;SDS011;60181;53.258;6.932;2022-12-29T21:05:18;7.00;;;2.60;;
65658;SDS011;60181;53.258;6.932;2022-12-29T21:09:46;8.10;;;2.60;;
65658;SDS011;60181;53.258;6.932;2022-12-29T21:14:15;8.10;;;2.60;;
65658;SDS011;60181;53.258;6.932;2022-12-29T21:18:42;8.10;;;2.60;;
65658;SDS011;60181;53.258;6.932;2022-12-29T21:23:10;8.00;;;2.90;;
65658;SDS011;60181;53.258;6.932;2022-12-29T21:27:39;8.00;;;2.90;;
65658;SDS011;60181;53.258;6.932;2022-12-29T21:32:06;9.50;;;2.70;;
65658;SDS011;60181;53.258;6.932;2022-12-29T21:36:34;9.50;;;2.70;;
65658;SDS011;60181;53.258;6.932;2022-12-29T21:41:09;7.10;;;2.40;;
65658;SDS011;60181;53.258;6.932;2022-12-29T21:45:31;7.10;;;2.40;;
65658;SDS011;60181;53.258;6.932;2022-12-29T21:49:58;7.40;;;2.50;;
65658;SDS011;60181;53.258;6.932;2022-12-29T21:54:27;7.40;;;2.50;;
65658;SDS011;60181;53.258;6.932;2022-12-29T21:58:54;7.40;;;2.50;;
65658;SDS011;60181;53.258;6.932;2022-12-29T22:03:22;5.40;;;2.40;;
65658;SDS011;60181;53.258;6.932;2022-12-29T22:07:50;5.40;;;2.40;;
65658;SDS011;60181;53.258;6.932;2022-12-29T22:12:18;6.80;;;2.20;;
65658;SDS011;60181;53.258;6.932;2022-12-29T22:16:46;6.80;;;2.20;;
65658;SDS011;60181;53.258;6.932;2022-12-29T22:21:14;6.20;;;2.40;;
65658;SDS011;60181;53.258;6.932;2022-12-29T22:25:42;6.20;;;2.40;;
65658;SDS011;60181;53.258;6.932;2022-12-29T22:30:11;9.60;;;2.50;;
65658;SDS011;60181;53.258;6.932;2022-12-29T22:34:38;9.60;;;2.50;;
65658;SDS011;60181;53.258;6.932;2022-12-29T22:39:06;9.60;;;2.50;;
65658;SDS011;60181;53.258;6.932;2022-12-29T22:43:34;6.90;;;2.60;;
65658;SDS011;60181;53.258;6.932;2022-12-29T22:48:03;6.90;;;2.60;;
65658;SDS011;60181;53.258;6.932;2022-12-29T22:52:30;16.10;;;2.90;;
65658;SDS011;60181;53.258;6.932;2022-12-29T22:56:58;16.10;;;2.90;;
65658;SDS011;60181;53.258;6.932;2022-12-29T23:01:26;20.50;;;3.10;;
65658;SDS011;60181;53.258;6.932;2022-12-29T23:06:04;20.50;;;3.10;;
65658;SDS011;60181;53.258;6.932;2022-12-29T23:10:22;21.10;;;3.50;;
65658;SDS011;60181;53.258;6.932;2022-12-29T23:14:50;21.10;;;3.50;;
65658;SDS011;60181;53.258;6.932;2022-12-29T23:19:18;21.10;;;3.50;;
65658;SDS011;60181;53.258;6.932;2022-12-29T23:23:46;16.50;;;3.00;;
65658;SDS011;60181;53.258;6.932;2022-12-29T23:28:14;16.50;;;3.00;;
65658;SDS011;60181;53.258;6.932;2022-12-29T23:32:42;19.30;;;2.90;;
65658;SDS011;60181;53.258;6.932;2022-12-29T23:37:10;19.30;;;2.90;;
65658;SDS011;60181;53.258;6.932;2022-12-29T23:41:38;20.50;;;3.30;;
65658;SDS011;60181;53.258;6.932;2022-12-29T23:46:13;20.50;;;3.30;;
65658;SDS011;60181;53.258;6.932;2022-12-29T23:50:37;23.20;;;3.70;;
65658;SDS011;60181;53.258;6.932;2022-12-29T23:55:02;23.20;;;3.70;;
65658;SDS011;60181;53.258;6.932;2022-12-29T23:59:30;15.80;;;2.90;;
